createdAt,value
2022-11-21T00:00:49.759Z,20.05
2022-11-21T00:03:19.638Z,20.80
2022-11-21T00:05:51.379Z,18.52
2022-11-21T00:08:24.684Z,23.55
2022-11-21T00:10:54.528Z,19.10
2022-11-21T00:13:24.549Z,21.50
2022-11-21T00:15:54.408Z,25.58
2022-11-21T00:18:24.245Z,17.52
2022-11-21T00:20:54.142Z,24.65
2022-11-21T00:23:28.422Z,23.30
2022-11-21T00:25:58.239Z,24.48
2022-11-21T00:28:28.102Z,25.95
2022-11-21T00:30:57.941Z,26.08
2022-11-21T00:33:27.731Z,34.70
2022-11-21T00:35:57.957Z,103.70
2022-11-21T00:38:30.431Z,69.47
2022-11-21T00:41:00.248Z,64.05
2022-11-21T00:43:30.080Z,58.67
2022-11-21T00:46:02.953Z,36.42
2022-11-21T00:48:33.811Z,34.60
2022-11-21T00:51:03.936Z,48.50
2022-11-21T00:53:37.932Z,78.57
2022-11-21T00:56:08.404Z,47.17
2022-11-21T00:58:38.370Z,28.77
2022-11-21T01:01:09.556Z,27.88
2022-11-21T01:03:39.834Z,56.70
2022-11-21T01:06:11.512Z,49.83
2022-11-21T01:08:46.173Z,40.85
2022-11-21T01:11:17.875Z,28.75
2022-11-21T01:13:48.382Z,30.50
2022-11-21T01:16:20.484Z,71.45
2022-11-21T01:18:50.920Z,42.78
2022-11-21T01:21:24.007Z,54.55
2022-11-21T01:23:56.968Z,153.85
2022-11-21T01:26:28.542Z,84.85
2022-11-21T01:28:58.853Z,30.48
2022-11-21T01:31:30.665Z,33.28
2022-11-21T01:34:01.776Z,55.65
2022-11-21T01:36:33.173Z,43.90
2022-11-21T01:39:07.724Z,118.25
2022-11-21T01:41:40.895Z,23.90
2022-11-21T01:44:16.972Z,15.07
2022-11-21T01:46:46.957Z,20.27
2022-11-21T01:49:19.339Z,25.30
2022-11-21T01:51:52.633Z,18.77
2022-11-21T01:54:29.727Z,18.35
2022-11-21T01:57:04.761Z,39.92
2022-11-21T01:59:37.816Z,34.00
2022-11-21T02:02:09.758Z,30.45
2022-11-21T02:04:40.186Z,18.48
2022-11-21T02:07:10.443Z,18.55
2022-11-21T02:09:45.985Z,19.45
2022-11-21T02:12:19.693Z,27.67
2022-11-21T02:14:50.798Z,23.38
2022-11-21T02:17:21.755Z,28.95
2022-11-21T02:19:55.618Z,24.60
2022-11-21T02:22:35.388Z,32.42
2022-11-21T02:25:11.631Z,31.67
2022-11-21T02:27:42.325Z,25.27
2022-11-21T02:30:13.767Z,28.70
2022-11-21T02:32:47.200Z,32.58
2022-11-21T02:35:18.551Z,26.67
2022-11-21T02:37:50.105Z,24.90
2022-11-21T02:40:26.831Z,24.45
2022-11-21T02:43:03.198Z,29.23
2022-11-21T02:45:34.966Z,19.42
2022-11-21T02:48:04.811Z,27.25
2022-11-21T02:50:36.694Z,26.70
2022-11-21T02:53:07.721Z,49.08
2022-11-21T02:55:40.201Z,45.95
2022-11-21T02:58:10.082Z,46.92
2022-11-21T03:00:41.325Z,35.50
2022-11-21T03:03:11.581Z,37.28
2022-11-21T03:05:42.296Z,32.97
2022-11-21T03:08:12.467Z,37.55
2022-11-21T03:10:44.887Z,23.88
2022-11-21T03:13:14.730Z,31.52
2022-11-21T03:15:44.591Z,29.20
2022-11-21T03:18:14.430Z,22.90
2022-11-21T03:20:44.398Z,16.63
2022-11-21T03:23:14.310Z,27.55
2022-11-21T03:25:46.761Z,32.47
2022-11-21T03:28:16.590Z,32.80
2022-11-21T03:30:46.430Z,29.73
2022-11-21T03:33:16.943Z,18.05
2022-11-21T03:35:47.832Z,27.23
2022-11-21T03:38:17.732Z,29.67
2022-11-21T03:40:50.150Z,32.17
2022-11-21T03:43:19.996Z,27.80
2022-11-21T03:45:50.698Z,25.35
2022-11-21T03:48:20.601Z,32.50
2022-11-21T03:50:50.509Z,20.05
2022-11-21T03:53:20.853Z,34.13
2022-11-21T03:55:53.272Z,27.15
2022-11-21T03:58:24.184Z,27.42
2022-11-21T04:00:55.016Z,29.20
2022-11-21T04:03:24.891Z,34.45
2022-11-21T04:05:54.732Z,39.70
2022-11-21T04:08:25.450Z,25.50
2022-11-21T04:10:57.967Z,22.42
2022-11-21T04:13:28.150Z,31.30
2022-11-21T04:15:58.352Z,58.67
2022-11-21T04:18:28.434Z,50.47
2022-11-21T04:21:01.812Z,68.13
2022-11-21T04:23:31.896Z,82.03
2022-11-21T04:26:05.519Z,100.78
2022-11-21T04:28:35.394Z,45.75
2022-11-21T04:31:10.200Z,33.17
2022-11-21T04:33:42.291Z,37.42
2022-11-21T04:36:12.448Z,26.13
2022-11-21T04:38:42.553Z,32.58
2022-11-21T04:41:15.259Z,32.67
2022-11-21T04:43:45.171Z,26.20
2022-11-21T04:46:15.583Z,29.58
2022-11-21T04:48:46.215Z,27.40
2022-11-21T04:51:16.012Z,55.03
2022-11-21T04:53:45.858Z,43.75
2022-11-21T04:56:18.315Z,46.78
2022-11-21T04:58:48.180Z,31.05
2022-11-21T05:01:18.025Z,25.75
2022-11-21T05:03:47.923Z,33.30
2022-11-21T05:06:17.818Z,31.70
2022-11-21T05:08:51.743Z,32.30
2022-11-21T05:11:38.348Z,15.25
2022-11-21T05:14:08.195Z,16.13
2022-11-21T05:16:38.524Z,4.75
2022-11-21T05:19:09.235Z,9.48
2022-11-21T05:21:39.464Z,7.78
2022-11-21T05:24:10.596Z,9.25
2022-11-21T05:26:43.878Z,8.68
2022-11-21T05:29:13.845Z,4.40
2022-11-21T05:31:43.651Z,7.82
2022-11-21T05:34:13.655Z,7.82
2022-11-21T05:36:43.674Z,6.68
2022-11-21T05:39:13.504Z,3.35
2022-11-21T05:41:46.811Z,5.88
2022-11-21T05:44:14.599Z,7.88
2022-11-21T05:46:44.784Z,4.63
2022-11-21T05:49:15.180Z,5.15
2022-11-21T05:51:46.112Z,4.28
2022-11-21T05:54:17.856Z,5.43
2022-11-21T05:56:50.293Z,6.35
2022-11-21T05:59:20.530Z,5.40
2022-11-21T06:02:03.477Z,4.72
2022-11-21T06:04:33.468Z,2.97
2022-11-21T06:07:06.446Z,3.97
2022-11-21T06:09:51.107Z,4.90
2022-11-21T06:12:25.697Z,4.72
2022-11-21T06:14:56.908Z,3.22
2022-11-21T06:17:28.218Z,5.25
2022-11-21T06:19:58.779Z,0.75
2022-11-21T06:22:29.717Z,1.52
2022-11-21T06:25:00.401Z,2.30
2022-11-21T06:27:34.456Z,2.50
2022-11-21T06:30:04.277Z,4.85
2022-11-21T06:32:39.687Z,4.05
2022-11-21T06:35:11.227Z,3.85
2022-11-21T06:37:41.136Z,1.63
2022-11-21T06:40:13.733Z,3.33
2022-11-21T06:42:47.413Z,1.33
2022-11-21T06:45:18.460Z,2.63
2022-11-21T06:47:49.209Z,1.83
2022-11-21T06:50:20.351Z,2.38
2022-11-21T06:52:50.790Z,4.03
2022-11-21T06:55:21.547Z,1.90
2022-11-21T06:57:54.552Z,2.38
2022-11-21T07:00:25.496Z,1.08
2022-11-21T07:03:01.633Z,2.53
2022-11-21T07:05:32.823Z,6.88
2022-11-21T07:08:03.390Z,6.10
2022-11-21T07:10:33.973Z,0.73
2022-11-21T07:13:19.524Z,3.05
2022-11-21T07:15:51.476Z,7.90
2022-11-21T07:18:22.401Z,6.10
2022-11-21T07:20:52.937Z,3.10
2022-11-21T07:23:23.873Z,13.73
2022-11-21T07:25:54.617Z,3.10
2022-11-21T07:28:27.231Z,3.53
2022-11-21T07:31:00.565Z,4.65
2022-11-21T07:33:31.557Z,5.38
2022-11-21T07:36:02.432Z,5.80
2022-11-21T07:38:32.838Z,1.67
2022-11-21T07:41:03.502Z,1.63
2022-11-21T07:43:35.939Z,3.40
2022-11-21T07:46:07.319Z,3.88
2022-11-21T07:48:37.484Z,4.05
2022-11-21T07:51:10.302Z,2.75
2022-11-21T07:53:40.301Z,3.13
2022-11-21T07:56:11.359Z,2.95
2022-11-21T07:58:45.096Z,2.40
2022-11-21T08:01:16.089Z,2.97
2022-11-21T08:03:45.986Z,2.13
2022-11-21T08:06:16.077Z,5.70
2022-11-21T08:08:46.375Z,3.13
2022-11-21T08:11:16.244Z,6.60
2022-11-21T08:13:49.744Z,6.50
2022-11-21T08:16:19.617Z,6.18
2022-11-21T08:18:51.261Z,3.60
2022-11-21T08:21:21.132Z,6.00
2022-11-21T08:23:52.349Z,7.38
2022-11-21T08:26:22.435Z,3.92
2022-11-21T08:28:59.731Z,5.45
2022-11-21T08:31:29.987Z,5.55
2022-11-21T08:34:01.044Z,4.20
2022-11-21T08:36:32.324Z,10.35
2022-11-21T08:39:03.297Z,2.70
2022-11-21T08:41:46.753Z,4.25
2022-11-21T08:44:19.352Z,7.25
2022-11-21T08:46:49.558Z,12.55
2022-11-21T08:49:19.575Z,6.20
2022-11-21T08:51:50.635Z,4.53
2022-11-21T08:54:21.271Z,18.70
2022-11-21T08:56:52.540Z,15.38
2022-11-21T08:59:24.962Z,7.45
2022-11-21T09:01:55.825Z,5.22
2022-11-21T09:04:25.818Z,6.05
2022-11-21T09:06:56.736Z,3.40
2022-11-21T09:09:26.594Z,4.55
2022-11-21T09:11:56.493Z,5.45
2022-11-21T09:14:41.304Z,4.90
2022-11-21T09:17:28.136Z,3.55
2022-11-21T09:19:58.536Z,3.88
2022-11-21T09:22:28.754Z,4.68
2022-11-21T09:25:02.004Z,5.82
2022-11-21T09:27:33.324Z,13.60
2022-11-21T09:30:05.970Z,17.02
2022-11-21T09:32:37.136Z,9.60
2022-11-21T09:35:08.788Z,3.35
2022-11-21T09:37:40.497Z,4.70
2022-11-21T09:40:15.816Z,11.35
2022-11-21T09:43:16.958Z,18.08
2022-11-21T09:45:52.668Z,20.95
2022-11-21T09:48:27.130Z,5.20
2022-11-21T09:50:59.129Z,19.55
2022-11-21T09:53:31.600Z,4.05
2022-11-21T09:56:04.094Z,12.25
2022-11-21T09:58:38.104Z,4.68
2022-11-21T10:01:14.192Z,3.15
2022-11-21T10:03:47.642Z,3.13
2022-11-21T10:06:22.572Z,2.63
2022-11-21T10:09:00.880Z,2.33
2022-11-21T10:12:00.251Z,2.53
2022-11-21T10:14:41.841Z,5.57
2022-11-21T10:17:22.060Z,2.30
2022-11-21T10:20:02.727Z,4.00
2022-11-21T10:22:45.342Z,3.13
2022-11-21T10:25:19.773Z,3.22
2022-11-21T10:27:55.702Z,1.55
2022-11-21T10:30:26.549Z,2.78
2022-11-21T10:33:01.848Z,3.42
2022-11-21T10:35:36.160Z,1.85
2022-11-21T10:38:14.778Z,1.42
2022-11-21T10:40:47.964Z,1.52
2022-11-21T10:43:39.944Z,3.50
2022-11-21T10:46:10.419Z,7.82
2022-11-21T10:48:43.909Z,6.80
2022-11-21T10:51:28.861Z,2.75
2022-11-21T10:54:21.695Z,1.67
2022-11-21T10:56:51.593Z,7.82
2022-11-21T10:59:30.873Z,11.23
2022-11-21T11:02:03.767Z,5.45
2022-11-21T11:04:45.879Z,3.22
2022-11-21T11:07:27.342Z,7.22
2022-11-21T11:10:19.690Z,4.72
2022-11-21T11:13:30.731Z,4.63
2022-11-21T11:15:58.047Z,6.45
2022-11-21T11:18:28.590Z,10.98
2022-11-21T11:21:17.577Z,8.73
2022-11-21T11:23:48.127Z,3.17
2022-11-21T11:26:25.377Z,3.67
2022-11-21T11:28:56.986Z,8.10
2022-11-21T11:31:27.137Z,3.97
2022-11-21T11:33:58.896Z,5.40
2022-11-21T11:36:44.586Z,8.38
2022-11-21T11:39:24.852Z,6.22
2022-11-21T11:42:23.402Z,7.90
2022-11-21T11:45:16.584Z,4.75
2022-11-21T11:47:54.851Z,6.60
2022-11-21T11:50:28.012Z,10.40
2022-11-21T11:53:07.065Z,7.90
2022-11-21T11:55:40.317Z,2.13
2022-11-21T11:58:18.285Z,2.72
2022-11-21T12:00:51.449Z,4.60
2022-11-21T12:03:24.488Z,11.15
2022-11-21T12:06:07.693Z,5.20
2022-11-21T12:08:49.693Z,2.17
2022-11-21T12:11:39.596Z,3.47
2022-11-21T12:14:37.090Z,10.95
2022-11-21T12:17:09.597Z,8.52
2022-11-21T12:19:41.168Z,3.55
2022-11-21T12:22:12.740Z,3.42
2022-11-21T12:24:45.239Z,8.65
2022-11-21T12:27:23.960Z,12.35
2022-11-21T12:30:06.394Z,39.53
2022-11-21T12:32:47.817Z,22.73
2022-11-21T12:35:38.841Z,61.13
2022-11-21T12:38:20.018Z,55.75
2022-11-21T12:41:01.198Z,60.17
2022-11-21T12:43:34.968Z,25.25
2022-11-21T12:46:13.785Z,20.40
2022-11-21T12:49:05.851Z,23.70
2022-11-21T12:52:11.968Z,6.63
2022-11-21T12:55:06.198Z,15.10
2022-11-21T12:57:50.589Z,24.33
2022-11-21T13:00:26.384Z,5.38
2022-11-21T13:03:21.112Z,4.40
2022-11-21T13:05:53.019Z,2.38
2022-11-21T13:08:27.163Z,4.95
2022-11-21T13:11:17.451Z,6.95
2022-11-21T13:13:53.123Z,12.38
2022-11-21T13:16:37.446Z,22.95
2022-11-21T13:19:24.372Z,24.02
2022-11-21T13:21:56.599Z,12.25
2022-11-21T13:24:56.482Z,6.40
2022-11-21T13:27:38.160Z,6.32
2022-11-21T13:30:25.955Z,7.20
2022-11-21T13:32:56.769Z,5.28
2022-11-21T13:36:02.945Z,7.82
2022-11-21T13:38:34.031Z,7.97
2022-11-21T13:41:16.264Z,9.10
2022-11-21T13:43:46.059Z,5.80
2022-11-21T13:47:10.495Z,9.07
2022-11-21T13:49:47.143Z,7.57
2022-11-21T13:52:26.162Z,8.23
2022-11-21T13:55:11.587Z,9.18
2022-11-21T13:57:53.214Z,9.40
2022-11-21T14:00:39.673Z,12.90
2022-11-21T14:03:56.974Z,13.50
2022-11-21T14:06:39.172Z,14.27
2022-11-21T14:09:28.768Z,10.07
2022-11-21T14:12:01.201Z,11.85
2022-11-21T14:14:34.534Z,9.50
2022-11-21T14:17:25.782Z,11.90
2022-11-21T14:20:00.884Z,17.38
2022-11-21T14:22:37.017Z,20.77
2022-11-21T14:25:13.089Z,21.08
2022-11-21T14:27:45.653Z,15.90
2022-11-21T14:30:35.440Z,15.20
2022-11-21T14:33:24.762Z,12.10
2022-11-21T14:38:28.643Z,13.82
2022-11-21T14:41:40.546Z,16.10
2022-11-21T14:44:20.161Z,11.50
2022-11-21T14:46:50.956Z,19.88
2022-11-21T14:49:38.947Z,15.73
2022-11-21T14:52:22.670Z,13.50
2022-11-21T14:57:46.592Z,12.40
2022-11-21T15:00:51.509Z,9.20
2022-11-21T15:03:22.093Z,14.82
2022-11-21T15:06:04.115Z,14.60
2022-11-21T15:09:23.583Z,10.80
2022-11-21T15:11:36.430Z,10.93
2022-11-21T15:14:15.856Z,9.48
2022-11-21T15:16:49.202Z,9.25
2022-11-21T15:19:25.180Z,7.85
2022-11-21T15:21:57.181Z,9.90
2022-11-21T15:24:43.255Z,16.75
2022-11-21T15:27:35.408Z,17.52
2022-11-21T15:30:08.699Z,16.70
2022-11-21T15:33:03.112Z,16.52
2022-11-21T15:35:50.058Z,13.52
2022-11-21T15:38:27.872Z,18.75
2022-11-21T15:41:06.121Z,20.02
2022-11-21T15:43:37.528Z,19.40
2022-11-21T15:46:12.908Z,18.25
2022-11-21T15:48:42.778Z,22.80
2022-11-21T15:51:14.637Z,16.30
2022-11-21T15:53:44.683Z,20.60
2022-11-21T15:56:22.808Z,14.90
2022-11-21T15:58:53.085Z,14.63
2022-11-21T16:01:25.257Z,16.45
2022-11-21T16:03:57.014Z,19.83
2022-11-21T16:06:27.781Z,15.32
2022-11-21T16:08:57.587Z,15.07
2022-11-21T16:11:31.840Z,19.00
2022-11-21T16:14:03.312Z,17.38
2022-11-21T16:16:39.786Z,19.50
2022-11-21T16:19:13.276Z,21.85
2022-11-21T16:21:43.422Z,20.73
2022-11-21T16:24:13.765Z,18.45
2022-11-21T16:26:47.051Z,18.42
2022-11-21T16:29:17.747Z,18.73
2022-11-21T16:31:49.010Z,18.65
2022-11-21T16:34:22.701Z,17.10
2022-11-21T16:36:52.682Z,15.55
2022-11-21T16:39:22.940Z,17.88
2022-11-21T16:41:55.709Z,17.15
2022-11-21T16:44:27.290Z,15.93
2022-11-21T16:46:57.107Z,15.20
2022-11-21T16:49:27.294Z,17.45
2022-11-21T16:51:59.117Z,17.48
2022-11-21T16:54:29.380Z,20.88
2022-11-21T16:57:02.780Z,21.35
2022-11-21T16:59:32.599Z,17.45
2022-11-21T17:02:02.862Z,15.60
2022-11-21T17:04:35.224Z,16.35
2022-11-21T17:07:05.405Z,37.85
2022-11-21T17:09:35.426Z,22.67
2022-11-21T17:12:09.205Z,23.08
2022-11-21T17:14:39.029Z,21.20
2022-11-21T17:17:09.961Z,18.38
2022-11-21T17:19:39.868Z,15.38
2022-11-21T17:22:10.342Z,15.77
2022-11-21T17:24:40.269Z,23.30
2022-11-21T17:27:12.837Z,18.80
2022-11-21T17:29:43.335Z,25.33
2022-11-21T17:32:13.949Z,48.72
2022-11-21T17:34:43.783Z,68.25
2022-11-21T17:37:14.326Z,65.13
2022-11-21T17:39:45.627Z,85.63
2022-11-21T17:42:19.611Z,56.38
2022-11-21T17:44:49.462Z,68.18
2022-11-21T17:47:19.464Z,81.07
2022-11-21T17:49:49.905Z,79.30
2022-11-21T17:52:19.862Z,51.40
2022-11-21T17:54:49.691Z,36.17
2022-11-21T17:57:22.104Z,28.15
2022-11-21T17:59:52.011Z,30.90
2022-11-21T18:02:22.540Z,41.50
2022-11-21T18:04:52.510Z,30.83
2022-11-21T18:07:23.456Z,34.45
2022-11-21T18:09:53.371Z,43.28
2022-11-21T18:12:25.841Z,40.53
2022-11-21T18:14:55.688Z,30.42
2022-11-21T18:17:25.541Z,60.70
2022-11-21T18:19:55.474Z,47.90
2022-11-21T18:22:29.495Z,37.80
2022-11-21T18:24:59.712Z,105.90
2022-11-21T18:27:32.723Z,94.72
2022-11-21T18:30:02.594Z,62.10
2022-11-21T18:32:32.407Z,62.53
2022-11-21T18:35:02.383Z,57.50
2022-11-21T18:37:33.000Z,52.25
2022-11-21T18:40:02.874Z,55.30
2022-11-21T18:42:37.069Z,58.47
2022-11-21T18:45:07.926Z,63.65
2022-11-21T18:47:38.292Z,64.45
2022-11-21T18:50:09.350Z,57.03
2022-11-21T18:52:43.599Z,57.35
2022-11-21T18:55:16.154Z,49.97
2022-11-21T18:57:48.547Z,33.17
2022-11-21T19:00:20.488Z,39.40
2022-11-21T19:02:50.662Z,30.55
2022-11-21T19:05:20.954Z,33.22
2022-11-21T19:07:51.684Z,41.72
2022-11-21T19:10:42.617Z,75.35
2022-11-21T19:13:15.099Z,32.58
2022-11-21T19:15:45.927Z,31.55
2022-11-21T19:18:15.962Z,35.42
2022-11-21T19:20:45.796Z,34.33
2022-11-21T19:23:15.684Z,26.17
2022-11-21T19:25:45.505Z,27.70
2022-11-21T19:28:18.032Z,33.25
2022-11-21T19:30:47.899Z,43.70
2022-11-21T19:33:17.867Z,68.50
2022-11-21T19:35:47.669Z,39.00
2022-11-21T19:38:18.273Z,35.33
2022-11-21T19:41:03.192Z,30.10
2022-11-21T19:43:35.697Z,25.42
2022-11-21T19:46:07.319Z,24.88
2022-11-21T19:48:37.381Z,26.88
2022-11-21T19:51:08.643Z,58.80
2022-11-21T19:53:40.925Z,202.75
2022-11-21T19:56:15.261Z,113.72
2022-11-21T19:58:48.934Z,32.63
2022-11-21T20:01:20.384Z,99.55
2022-11-21T20:03:53.676Z,110.22
2022-11-21T20:06:25.001Z,52.47
2022-11-21T20:08:55.939Z,40.25
2022-11-21T20:11:26.684Z,26.00
2022-11-21T20:13:59.299Z,23.55
2022-11-21T20:16:31.232Z,39.88
2022-11-21T20:19:02.727Z,42.05
2022-11-21T20:21:33.157Z,40.90
2022-11-21T20:24:03.800Z,40.25
2022-11-21T20:26:33.767Z,37.47
2022-11-21T20:29:08.141Z,36.25
2022-11-21T20:31:40.001Z,32.50
2022-11-21T20:34:12.758Z,27.00
2022-11-21T20:36:43.368Z,25.27
2022-11-21T20:39:16.888Z,25.23
2022-11-21T20:41:48.252Z,27.65
2022-11-21T20:47:13.065Z,28.65
2022-11-21T20:49:42.920Z,26.10
2022-11-21T20:55:02.696Z,28.30
2022-11-21T20:57:32.778Z,43.97
2022-11-21T21:00:05.371Z,39.63
2022-11-21T21:02:35.179Z,43.22
2022-11-21T21:05:05.068Z,36.55
2022-11-21T21:07:35.365Z,36.90
2022-11-21T21:10:05.666Z,38.38
2022-11-21T21:12:35.994Z,41.60
2022-11-21T21:15:09.025Z,38.85
2022-11-21T21:17:38.924Z,33.25
2022-11-21T21:20:10.748Z,42.55
2022-11-21T21:22:41.716Z,33.85
2022-11-21T21:25:11.831Z,32.92
2022-11-21T21:27:41.662Z,30.20
2022-11-21T21:30:15.367Z,31.50
2022-11-21T21:32:46.041Z,25.83
2022-11-21T21:35:16.516Z,27.38
2022-11-21T21:37:46.741Z,34.72
2022-11-21T21:40:16.783Z,27.60
2022-11-21T21:42:46.962Z,26.80
2022-11-21T21:45:19.676Z,31.27
2022-11-21T21:47:49.647Z,36.50
2022-11-21T21:50:19.483Z,35.13
2022-11-21T21:52:49.354Z,37.00
2022-11-21T21:55:19.523Z,34.50
2022-11-21T21:57:52.640Z,29.35
2022-11-21T22:00:25.350Z,39.33
2022-11-21T22:02:55.680Z,30.33
2022-11-21T22:05:26.356Z,41.08
2022-11-21T22:07:56.678Z,37.85
2022-11-21T22:10:26.494Z,34.00
2022-11-21T22:12:56.448Z,31.25
2022-11-21T22:15:29.943Z,33.20
2022-11-21T22:17:59.848Z,42.78
2022-11-21T22:20:29.680Z,27.85
2022-11-21T22:23:00.742Z,33.50
2022-11-21T22:25:30.657Z,45.40
2022-11-21T22:28:00.454Z,46.33
2022-11-21T22:30:32.923Z,41.38
2022-11-21T22:33:02.853Z,35.38
2022-11-21T22:35:35.639Z,34.75
2022-11-21T22:38:05.638Z,39.40
2022-11-21T22:40:35.452Z,30.17
2022-11-21T22:43:06.553Z,29.45
2022-11-21T22:45:38.977Z,38.40
2022-11-21T22:48:09.964Z,29.60
2022-11-21T22:50:39.902Z,26.48
2022-11-21T22:53:09.829Z,21.70
2022-11-21T22:55:39.788Z,32.03
2022-11-21T22:58:09.625Z,33.35
2022-11-21T23:00:42.317Z,33.70
2022-11-21T23:03:13.417Z,24.35
2022-11-21T23:05:43.290Z,29.50
2022-11-21T23:08:13.121Z,32.85
2022-11-21T23:10:42.915Z,32.20
2022-11-21T23:13:12.758Z,29.08
2022-11-21T23:15:45.921Z,26.50
2022-11-21T23:18:16.225Z,29.70
2022-11-21T23:20:47.334Z,27.33
2022-11-21T23:23:17.175Z,31.42
2022-11-21T23:25:47.024Z,41.78
2022-11-21T23:28:17.014Z,27.58
2022-11-21T23:30:50.843Z,29.63
2022-11-21T23:33:20.840Z,27.48
2022-11-21T23:35:50.771Z,29.08
2022-11-21T23:38:22.059Z,24.10
2022-11-21T23:40:52.625Z,27.92
2022-11-21T23:43:22.603Z,37.70
2022-11-21T23:45:58.147Z,31.27
2022-11-21T23:48:28.556Z,36.47
2022-11-21T23:50:58.609Z,25.23
2022-11-21T23:53:28.480Z,25.95
2022-11-21T23:55:58.297Z,22.15
2022-11-21T23:58:28.156Z,27.80
